sensor_id;sensor_type;location;lat;lon;timestamp;temperature;humidity
7998;DHT22;4044;49.814;7.828;2023-07-13T00:01:43;15.80;99.90
7998;DHT22;4044;49.814;7.828;2023-07-13T00:04:08;15.80;99.90
7998;DHT22;4044;49.814;7.828;2023-07-13T00:06:34;15.80;99.90
7998;DHT22;4044;49.814;7.828;2023-07-13T00:09:00;15.70;99.90
7998;DHT22;4044;49.814;7.828;2023-07-13T00:11:27;15.70;99.90
7998;DHT22;4044;49.814;7.828;2023-07-13T00:13:53;15.70;99.90
7998;DHT22;4044;49.814;7.828;2023-07-13T00:16:19;15.70;99.90
7998;DHT22;4044;49.814;7.828;2023-07-13T00:18:45;15.70;99.90
7998;DHT22;4044;49.814;7.828;2023-07-13T00:21:11;15.70;99.90
7998;DHT22;4044;49.814;7.828;2023-07-13T00:23:39;15.60;99.90
7998;DHT22;4044;49.814;7.828;2023-07-13T00:26:07;15.60;99.90
7998;DHT22;4044;49.814;7.828;2023-07-13T00:28:33;15.60;99.90
7998;DHT22;4044;49.814;7.828;2023-07-13T00:30:59;15.50;99.90
7998;DHT22;4044;49.814;7.828;2023-07-13T00:33:27;15.50;99.90
7998;DHT22;4044;49.814;7.828;2023-07-13T00:35:54;15.40;99.90
7998;DHT22;4044;49.814;7.828;2023-07-13T00:38:20;15.40;99.90
7998;DHT22;4044;49.814;7.828;2023-07-13T00:40:45;15.30;99.90
7998;DHT22;4044;49.814;7.828;2023-07-13T00:43:14;15.20;99.90
7998;DHT22;4044;49.814;7.828;2023-07-13T00:48:22;15.10;99.90
7998;DHT22;4044;49.814;7.828;2023-07-13T00:50:51;15.10;99.90
7998;DHT22;4044;49.814;7.828;2023-07-13T00:53:19;15.10;99.90
7998;DHT22;4044;49.814;7.828;2023-07-13T00:55:47;15.10;99.90
7998;DHT22;4044;49.814;7.828;2023-07-13T00:58:14;15.10;99.90
7998;DHT22;4044;49.814;7.828;2023-07-13T01:00:40;15.00;99.90
7998;DHT22;4044;49.814;7.828;2023-07-13T01:03:06;15.00;99.90
7998;DHT22;4044;49.814;7.828;2023-07-13T01:05:33;15.00;99.90
7998;DHT22;4044;49.814;7.828;2023-07-13T01:08:01;14.90;99.90
7998;DHT22;4044;49.814;7.828;2023-07-13T01:10:27;14.90;99.90
7998;DHT22;4044;49.814;7.828;2023-07-13T01:12:53;14.90;99.90
7998;DHT22;4044;49.814;7.828;2023-07-13T01:15:42;14.90;99.90
7998;DHT22;4044;49.814;7.828;2023-07-13T01:18:13;14.80;99.90
7998;DHT22;4044;49.814;7.828;2023-07-13T01:20:39;14.80;99.90
7998;DHT22;4044;49.814;7.828;2023-07-13T01:23:07;14.80;99.90
7998;DHT22;4044;49.814;7.828;2023-07-13T01:25:37;14.80;99.90
7998;DHT22;4044;49.814;7.828;2023-07-13T01:28:08;14.80;99.90
7998;DHT22;4044;49.814;7.828;2023-07-13T01:30:38;14.70;99.90
7998;DHT22;4044;49.814;7.828;2023-07-13T01:33:07;14.70;99.90
7998;DHT22;4044;49.814;7.828;2023-07-13T01:35:35;14.60;99.90
7998;DHT22;4044;49.814;7.828;2023-07-13T01:38:00;14.50;99.90
7998;DHT22;4044;49.814;7.828;2023-07-13T01:40:27;14.50;99.90
7998;DHT22;4044;49.814;7.828;2023-07-13T01:42:53;14.50;99.90
7998;DHT22;4044;49.814;7.828;2023-07-13T01:45:19;14.40;99.90
7998;DHT22;4044;49.814;7.828;2023-07-13T01:47:44;14.40;99.90
7998;DHT22;4044;49.814;7.828;2023-07-13T01:50:10;14.40;99.90
7998;DHT22;4044;49.814;7.828;2023-07-13T01:52:35;14.40;99.90
7998;DHT22;4044;49.814;7.828;2023-07-13T01:55:01;14.20;99.90
7998;DHT22;4044;49.814;7.828;2023-07-13T01:57:27;14.20;99.90
7998;DHT22;4044;49.814;7.828;2023-07-13T01:59:53;14.20;99.90
7998;DHT22;4044;49.814;7.828;2023-07-13T02:02:18;14.20;99.90
7998;DHT22;4044;49.814;7.828;2023-07-13T02:04:44;14.20;99.90
7998;DHT22;4044;49.814;7.828;2023-07-13T02:07:10;14.10;99.90
7998;DHT22;4044;49.814;7.828;2023-07-13T02:09:35;14.10;99.90
7998;DHT22;4044;49.814;7.828;2023-07-13T02:12:01;14.10;99.90
7998;DHT22;4044;49.814;7.828;2023-07-13T02:14:27;14.10;99.90
7998;DHT22;4044;49.814;7.828;2023-07-13T02:16:52;14.10;99.90
7998;DHT22;4044;49.814;7.828;2023-07-13T02:19:18;14.00;99.90
7998;DHT22;4044;49.814;7.828;2023-07-13T02:21:43;13.90;99.90
7998;DHT22;4044;49.814;7.828;2023-07-13T02:24:09;13.90;99.90
7998;DHT22;4044;49.814;7.828;2023-07-13T02:26:34;13.80;99.90
7998;DHT22;4044;49.814;7.828;2023-07-13T02:29:00;13.80;99.90
7998;DHT22;4044;49.814;7.828;2023-07-13T02:31:25;13.80;99.90
7998;DHT22;4044;49.814;7.828;2023-07-13T02:33:52;13.60;99.90
7998;DHT22;4044;49.814;7.828;2023-07-13T02:36:17;13.50;99.90
7998;DHT22;4044;49.814;7.828;2023-07-13T02:38:44;13.50;99.90
7998;DHT22;4044;49.814;7.828;2023-07-13T02:41:10;13.50;99.90
7998;DHT22;4044;49.814;7.828;2023-07-13T02:43:37;13.50;99.90
7998;DHT22;4044;49.814;7.828;2023-07-13T02:46:03;13.50;99.90
7998;DHT22;4044;49.814;7.828;2023-07-13T02:48:35;13.40;99.90
7998;DHT22;4044;49.814;7.828;2023-07-13T02:51:01;13.50;99.90
7998;DHT22;4044;49.814;7.828;2023-07-13T02:53:27;13.50;99.90
7998;DHT22;4044;49.814;7.828;2023-07-13T02:55:53;13.50;99.90
7998;DHT22;4044;49.814;7.828;2023-07-13T02:58:18;13.50;99.90
7998;DHT22;4044;49.814;7.828;2023-07-13T03:00:45;13.50;99.90
7998;DHT22;4044;49.814;7.828;2023-07-13T03:03:14;13.40;99.90
7998;DHT22;4044;49.814;7.828;2023-07-13T03:05:42;13.40;99.90
7998;DHT22;4044;49.814;7.828;2023-07-13T03:08:09;13.30;99.90
7998;DHT22;4044;49.814;7.828;2023-07-13T03:10:35;13.30;99.90
7998;DHT22;4044;49.814;7.828;2023-07-13T03:13:00;13.30;99.90
7998;DHT22;4044;49.814;7.828;2023-07-13T03:15:27;13.40;99.90
7998;DHT22;4044;49.814;7.828;2023-07-13T03:17:52;13.30;99.90
7998;DHT22;4044;49.814;7.828;2023-07-13T03:20:18;13.30;99.90
7998;DHT22;4044;49.814;7.828;2023-07-13T03:22:44;13.30;99.90
7998;DHT22;4044;49.814;7.828;2023-07-13T03:25:09;13.40;99.90
7998;DHT22;4044;49.814;7.828;2023-07-13T03:27:36;13.60;99.90
7998;DHT22;4044;49.814;7.828;2023-07-13T03:30:02;13.70;99.90
7998;DHT22;4044;49.814;7.828;2023-07-13T03:32:28;13.70;99.90
7998;DHT22;4044;49.814;7.828;2023-07-13T03:34:54;13.70;99.90
7998;DHT22;4044;49.814;7.828;2023-07-13T03:37:19;13.70;99.90
7998;DHT22;4044;49.814;7.828;2023-07-13T03:39:45;13.80;99.90
7998;DHT22;4044;49.814;7.828;2023-07-13T03:42:10;13.80;99.90
7998;DHT22;4044;49.814;7.828;2023-07-13T03:44:36;13.90;99.90
7998;DHT22;4044;49.814;7.828;2023-07-13T03:47:01;14.10;99.90
7998;DHT22;4044;49.814;7.828;2023-07-13T03:49:27;14.10;99.90
7998;DHT22;4044;49.814;7.828;2023-07-13T03:51:53;14.30;99.90
7998;DHT22;4044;49.814;7.828;2023-07-13T03:54:18;14.40;99.90
7998;DHT22;4044;49.814;7.828;2023-07-13T03:56:44;14.40;99.90
7998;DHT22;4044;49.814;7.828;2023-07-13T03:59:09;14.50;99.90
7998;DHT22;4044;49.814;7.828;2023-07-13T04:01:35;14.60;99.90
7998;DHT22;4044;49.814;7.828;2023-07-13T04:04:00;14.70;99.90
7998;DHT22;4044;49.814;7.828;2023-07-13T04:06:28;14.80;99.90
7998;DHT22;4044;49.814;7.828;2023-07-13T04:08:56;15.00;99.90
7998;DHT22;4044;49.814;7.828;2023-07-13T04:11:25;15.00;99.90
7998;DHT22;4044;49.814;7.828;2023-07-13T04:13:51;15.20;99.90
7998;DHT22;4044;49.814;7.828;2023-07-13T04:16:18;15.20;99.90
7998;DHT22;4044;49.814;7.828;2023-07-13T04:18:44;15.30;99.90
7998;DHT22;4044;49.814;7.828;2023-07-13T04:21:10;15.30;99.90
7998;DHT22;4044;49.814;7.828;2023-07-13T04:23:37;15.40;99.90
7998;DHT22;4044;49.814;7.828;2023-07-13T04:26:03;15.50;99.90
7998;DHT22;4044;49.814;7.828;2023-07-13T04:28:29;15.50;99.90
7998;DHT22;4044;49.814;7.828;2023-07-13T04:30:55;15.50;99.90
7998;DHT22;4044;49.814;7.828;2023-07-13T04:33:21;15.50;99.90
7998;DHT22;4044;49.814;7.828;2023-07-13T04:35:49;15.50;99.90
7998;DHT22;4044;49.814;7.828;2023-07-13T04:38:15;15.60;99.90
7998;DHT22;4044;49.814;7.828;2023-07-13T04:40:44;15.70;99.90
7998;DHT22;4044;49.814;7.828;2023-07-13T04:43:10;15.80;99.90
7998;DHT22;4044;49.814;7.828;2023-07-13T04:45:36;15.90;99.90
7998;DHT22;4044;49.814;7.828;2023-07-13T04:48:02;16.00;99.90
7998;DHT22;4044;49.814;7.828;2023-07-13T04:50:27;15.90;99.90
7998;DHT22;4044;49.814;7.828;2023-07-13T04:52:53;15.80;99.90
7998;DHT22;4044;49.814;7.828;2023-07-13T04:55:19;15.70;99.90
7998;DHT22;4044;49.814;7.828;2023-07-13T04:57:45;15.70;99.90
7998;DHT22;4044;49.814;7.828;2023-07-13T05:00:11;15.60;99.90
7998;DHT22;4044;49.814;7.828;2023-07-13T05:02:38;15.60;99.90
7998;DHT22;4044;49.814;7.828;2023-07-13T05:05:05;15.60;99.90
7998;DHT22;4044;49.814;7.828;2023-07-13T05:07:31;15.60;99.90
7998;DHT22;4044;49.814;7.828;2023-07-13T05:09:58;15.60;99.90
7998;DHT22;4044;49.814;7.828;2023-07-13T05:12:25;15.70;99.90
7998;DHT22;4044;49.814;7.828;2023-07-13T05:14:50;15.70;99.90
7998;DHT22;4044;49.814;7.828;2023-07-13T05:17:16;15.70;99.90
7998;DHT22;4044;49.814;7.828;2023-07-13T05:19:41;15.80;99.90
7998;DHT22;4044;49.814;7.828;2023-07-13T05:22:07;15.80;99.90
7998;DHT22;4044;49.814;7.828;2023-07-13T05:24:33;15.90;99.90
7998;DHT22;4044;49.814;7.828;2023-07-13T05:26:59;16.00;99.90
7998;DHT22;4044;49.814;7.828;2023-07-13T05:29:24;16.00;99.90
7998;DHT22;4044;49.814;7.828;2023-07-13T05:31:50;16.10;99.90
7998;DHT22;4044;49.814;7.828;2023-07-13T05:34:16;16.20;99.90
7998;DHT22;4044;49.814;7.828;2023-07-13T05:36:42;16.20;99.90
7998;DHT22;4044;49.814;7.828;2023-07-13T05:39:07;16.30;99.90
7998;DHT22;4044;49.814;7.828;2023-07-13T05:41:33;16.40;99.90
7998;DHT22;4044;49.814;7.828;2023-07-13T05:43:59;16.50;99.90
7998;DHT22;4044;49.814;7.828;2023-07-13T05:46:24;16.60;99.90
7998;DHT22;4044;49.814;7.828;2023-07-13T05:48:50;16.60;99.90
7998;DHT22;4044;49.814;7.828;2023-07-13T05:51:15;16.70;99.90
7998;DHT22;4044;49.814;7.828;2023-07-13T05:53:41;16.80;99.90
7998;DHT22;4044;49.814;7.828;2023-07-13T05:56:06;16.80;99.90
7998;DHT22;4044;49.814;7.828;2023-07-13T05:58:32;16.90;99.90
7998;DHT22;4044;49.814;7.828;2023-07-13T06:01:03;17.00;99.90
7998;DHT22;4044;49.814;7.828;2023-07-13T06:03:29;17.10;99.90
7998;DHT22;4044;49.814;7.828;2023-07-13T06:05:55;17.20;99.90
7998;DHT22;4044;49.814;7.828;2023-07-13T06:08:21;17.30;99.90
7998;DHT22;4044;49.814;7.828;2023-07-13T06:10:46;17.50;99.90
7998;DHT22;4044;49.814;7.828;2023-07-13T06:13:12;17.60;99.90
7998;DHT22;4044;49.814;7.828;2023-07-13T06:15:37;17.70;99.90
7998;DHT22;4044;49.814;7.828;2023-07-13T06:18:03;17.90;99.90
7998;DHT22;4044;49.814;7.828;2023-07-13T06:20:28;18.00;99.90
7998;DHT22;4044;49.814;7.828;2023-07-13T06:22:54;18.00;99.90
7998;DHT22;4044;49.814;7.828;2023-07-13T06:25:20;18.00;99.90
7998;DHT22;4044;49.814;7.828;2023-07-13T06:27:45;18.20;99.90
7998;DHT22;4044;49.814;7.828;2023-07-13T06:30:11;18.40;99.90
7998;DHT22;4044;49.814;7.828;2023-07-13T06:32:37;18.50;99.90
7998;DHT22;4044;49.814;7.828;2023-07-13T06:35:03;18.70;99.90
7998;DHT22;4044;49.814;7.828;2023-07-13T06:37:29;18.70;99.90
7998;DHT22;4044;49.814;7.828;2023-07-13T06:39:54;18.80;99.90
7998;DHT22;4044;49.814;7.828;2023-07-13T06:42:20;19.00;99.90
7998;DHT22;4044;49.814;7.828;2023-07-13T06:44:45;19.00;99.90
7998;DHT22;4044;49.814;7.828;2023-07-13T06:47:11;19.10;99.90
7998;DHT22;4044;49.814;7.828;2023-07-13T06:49:36;19.20;99.90
7998;DHT22;4044;49.814;7.828;2023-07-13T06:52:02;19.40;99.90
7998;DHT22;4044;49.814;7.828;2023-07-13T06:54:28;19.50;99.90
7998;DHT22;4044;49.814;7.828;2023-07-13T06:56:53;19.40;99.90
7998;DHT22;4044;49.814;7.828;2023-07-13T06:59:19;19.60;99.90
7998;DHT22;4044;49.814;7.828;2023-07-13T07:01:44;19.60;99.90
7998;DHT22;4044;49.814;7.828;2023-07-13T07:04:10;19.70;99.90
7998;DHT22;4044;49.814;7.828;2023-07-13T07:06:35;19.80;99.90
7998;DHT22;4044;49.814;7.828;2023-07-13T07:09:01;19.90;99.90
7998;DHT22;4044;49.814;7.828;2023-07-13T07:11:26;20.00;99.90
7998;DHT22;4044;49.814;7.828;2023-07-13T07:13:53;20.10;99.90
7998;DHT22;4044;49.814;7.828;2023-07-13T07:16:19;20.20;99.90
7998;DHT22;4044;49.814;7.828;2023-07-13T07:18:46;20.20;99.90
7998;DHT22;4044;49.814;7.828;2023-07-13T07:21:12;20.30;99.90
7998;DHT22;4044;49.814;7.828;2023-07-13T07:23:38;20.30;99.90
7998;DHT22;4044;49.814;7.828;2023-07-13T07:26:03;20.30;99.70
7998;DHT22;4044;49.814;7.828;2023-07-13T07:28:29;20.30;99.00
7998;DHT22;4044;49.814;7.828;2023-07-13T07:30:57;20.40;99.90
7998;DHT22;4044;49.814;7.828;2023-07-13T07:33:23;20.50;99.50
7998;DHT22;4044;49.814;7.828;2023-07-13T07:35:49;20.60;99.50
7998;DHT22;4044;49.814;7.828;2023-07-13T07:38:14;20.70;99.00
7998;DHT22;4044;49.814;7.828;2023-07-13T07:40:41;20.80;99.30
7998;DHT22;4044;49.814;7.828;2023-07-13T07:43:07;20.80;98.50
7998;DHT22;4044;49.814;7.828;2023-07-13T07:45:34;20.90;98.10
7998;DHT22;4044;49.814;7.828;2023-07-13T07:48:00;21.00;97.60
7998;DHT22;4044;49.814;7.828;2023-07-13T07:50:26;21.10;98.00
7998;DHT22;4044;49.814;7.828;2023-07-13T07:52:52;21.20;97.50
7998;DHT22;4044;49.814;7.828;2023-07-13T07:55:18;21.10;96.80
7998;DHT22;4044;49.814;7.828;2023-07-13T07:57:44;21.10;96.50
7998;DHT22;4044;49.814;7.828;2023-07-13T08:00:10;21.10;97.80
7998;DHT22;4044;49.814;7.828;2023-07-13T08:02:36;21.20;96.90
7998;DHT22;4044;49.814;7.828;2023-07-13T08:05:01;21.20;95.70
7998;DHT22;4044;49.814;7.828;2023-07-13T08:07:27;21.30;96.80
7998;DHT22;4044;49.814;7.828;2023-07-13T08:09:53;21.50;96.10
7998;DHT22;4044;49.814;7.828;2023-07-13T08:12:19;21.60;96.10
7998;DHT22;4044;49.814;7.828;2023-07-13T08:14:44;21.70;95.60
7998;DHT22;4044;49.814;7.828;2023-07-13T08:17:10;21.90;96.10
7998;DHT22;4044;49.814;7.828;2023-07-13T08:19:35;22.00;95.30
7998;DHT22;4044;49.814;7.828;2023-07-13T08:22:01;22.10;95.30
7998;DHT22;4044;49.814;7.828;2023-07-13T08:24:26;22.10;94.50
7998;DHT22;4044;49.814;7.828;2023-07-13T08:26:52;22.10;94.50
7998;DHT22;4044;49.814;7.828;2023-07-13T08:29:17;22.20;94.30
7998;DHT22;4044;49.814;7.828;2023-07-13T08:31:43;22.20;94.60
7998;DHT22;4044;49.814;7.828;2023-07-13T08:34:08;22.30;94.30
7998;DHT22;4044;49.814;7.828;2023-07-13T08:36:34;22.50;95.00
7998;DHT22;4044;49.814;7.828;2023-07-13T08:39:00;22.50;93.60
7998;DHT22;4044;49.814;7.828;2023-07-13T08:41:26;22.60;93.40
7998;DHT22;4044;49.814;7.828;2023-07-13T08:43:56;22.70;92.50
7998;DHT22;4044;49.814;7.828;2023-07-13T08:46:28;22.90;92.80
7998;DHT22;4044;49.814;7.828;2023-07-13T08:49:01;23.00;92.80
7998;DHT22;4044;49.814;7.828;2023-07-13T08:54:09;23.30;92.10
7998;DHT22;4044;49.814;7.828;2023-07-13T08:56:36;23.40;90.60
7998;DHT22;4044;49.814;7.828;2023-07-13T08:59:16;23.40;91.40
7998;DHT22;4044;49.814;7.828;2023-07-13T09:04:25;23.60;89.20
7998;DHT22;4044;49.814;7.828;2023-07-13T09:12:27;24.10;90.00
7998;DHT22;4044;49.814;7.828;2023-07-13T09:14:50;24.00;90.10
7998;DHT22;4044;49.814;7.828;2023-07-13T09:17:25;23.90;90.10
7998;DHT22;4044;49.814;7.828;2023-07-13T09:22:34;24.00;87.10
7998;DHT22;4044;49.814;7.828;2023-07-13T09:25:29;24.10;90.30
7998;DHT22;4044;49.814;7.828;2023-07-13T09:28:00;24.20;86.00
7998;DHT22;4044;49.814;7.828;2023-07-13T09:30:51;24.40;90.10
7998;DHT22;4044;49.814;7.828;2023-07-13T09:33:19;24.40;87.80
7998;DHT22;4044;49.814;7.828;2023-07-13T09:35:44;24.10;88.10
7998;DHT22;4044;49.814;7.828;2023-07-13T09:38:16;24.10;89.60
7998;DHT22;4044;49.814;7.828;2023-07-13T09:43:38;24.30;88.40
7998;DHT22;4044;49.814;7.828;2023-07-13T09:46:04;24.60;86.90
7998;DHT22;4044;49.814;7.828;2023-07-13T09:48:35;24.60;85.50
7998;DHT22;4044;49.814;7.828;2023-07-13T09:51:14;24.60;85.10
7998;DHT22;4044;49.814;7.828;2023-07-13T09:53:42;24.50;87.30
7998;DHT22;4044;49.814;7.828;2023-07-13T09:56:27;24.50;86.80
7998;DHT22;4044;49.814;7.828;2023-07-13T09:58:55;24.60;84.10
7998;DHT22;4044;49.814;7.828;2023-07-13T10:01:37;24.60;81.80
7998;DHT22;4044;49.814;7.828;2023-07-13T10:04:11;24.70;85.10
7998;DHT22;4044;49.814;7.828;2023-07-13T10:06:38;24.90;82.60
7998;DHT22;4044;49.814;7.828;2023-07-13T10:09:07;25.30;83.20
7998;DHT22;4044;49.814;7.828;2023-07-13T10:11:35;25.50;80.10
7998;DHT22;4044;49.814;7.828;2023-07-13T10:14:15;25.60;81.40
7998;DHT22;4044;49.814;7.828;2023-07-13T10:16:42;25.40;81.50
7998;DHT22;4044;49.814;7.828;2023-07-13T10:19:27;25.60;80.70
7998;DHT22;4044;49.814;7.828;2023-07-13T10:21:59;25.80;80.30
7998;DHT22;4044;49.814;7.828;2023-07-13T10:24:29;25.60;77.10
7998;DHT22;4044;49.814;7.828;2023-07-13T10:29:34;25.70;73.30
7998;DHT22;4044;49.814;7.828;2023-07-13T10:32:01;25.20;74.70
7998;DHT22;4044;49.814;7.828;2023-07-13T10:34:27;25.10;75.50
7998;DHT22;4044;49.814;7.828;2023-07-13T10:36:53;25.20;74.90
7998;DHT22;4044;49.814;7.828;2023-07-13T10:39:20;25.10;75.20
7998;DHT22;4044;49.814;7.828;2023-07-13T10:41:53;25.20;79.50
7998;DHT22;4044;49.814;7.828;2023-07-13T10:44:30;25.20;77.60
7998;DHT22;4044;49.814;7.828;2023-07-13T10:46:59;25.30;79.30
7998;DHT22;4044;49.814;7.828;2023-07-13T10:49:28;25.30;76.20
7998;DHT22;4044;49.814;7.828;2023-07-13T10:51:54;25.40;76.90
7998;DHT22;4044;49.814;7.828;2023-07-13T10:54:27;25.80;78.40
7998;DHT22;4044;49.814;7.828;2023-07-13T10:57:15;26.10;79.00
7998;DHT22;4044;49.814;7.828;2023-07-13T10:59:46;26.00;75.40
7998;DHT22;4044;49.814;7.828;2023-07-13T11:02:25;25.80;73.30
7998;DHT22;4044;49.814;7.828;2023-07-13T11:04:52;25.70;74.60
7998;DHT22;4044;49.814;7.828;2023-07-13T11:07:24;25.80;74.80
7998;DHT22;4044;49.814;7.828;2023-07-13T11:09:59;25.80;75.30
7998;DHT22;4044;49.814;7.828;2023-07-13T11:12:48;25.80;75.40
7998;DHT22;4044;49.814;7.828;2023-07-13T11:15:26;25.80;74.90
7998;DHT22;4044;49.814;7.828;2023-07-13T11:17:54;25.90;74.70
7998;DHT22;4044;49.814;7.828;2023-07-13T11:20:39;26.20;75.60
7998;DHT22;4044;49.814;7.828;2023-07-13T11:25:43;27.00;72.80
7998;DHT22;4044;49.814;7.828;2023-07-13T11:30:47;26.30;73.90
7998;DHT22;4044;49.814;7.828;2023-07-13T11:38:28;26.80;76.30
7998;DHT22;4044;49.814;7.828;2023-07-13T11:40:55;27.10;73.20
7998;DHT22;4044;49.814;7.828;2023-07-13T11:43:23;27.10;73.40
7998;DHT22;4044;49.814;7.828;2023-07-13T11:45:50;26.90;70.50
7998;DHT22;4044;49.814;7.828;2023-07-13T11:48:27;26.60;72.90
7998;DHT22;4044;49.814;7.828;2023-07-13T11:51:02;26.60;72.90
7998;DHT22;4044;49.814;7.828;2023-07-13T11:53:34;26.30;71.30
7998;DHT22;4044;49.814;7.828;2023-07-13T11:56:02;26.50;73.60
7998;DHT22;4044;49.814;7.828;2023-07-13T11:58:27;26.80;74.30
7998;DHT22;4044;49.814;7.828;2023-07-13T12:00:55;26.50;71.10
7998;DHT22;4044;49.814;7.828;2023-07-13T12:03:23;26.70;70.50
7998;DHT22;4044;49.814;7.828;2023-07-13T12:06:05;26.70;70.40
7998;DHT22;4044;49.814;7.828;2023-07-13T12:08:39;26.30;70.10
7998;DHT22;4044;49.814;7.828;2023-07-13T12:11:17;26.10;70.70
7998;DHT22;4044;49.814;7.828;2023-07-13T12:13:44;25.90;70.80
7998;DHT22;4044;49.814;7.828;2023-07-13T12:16:28;25.80;73.10
7998;DHT22;4044;49.814;7.828;2023-07-13T12:18:56;25.70;73.50
7998;DHT22;4044;49.814;7.828;2023-07-13T12:21:33;25.70;74.20
7998;DHT22;4044;49.814;7.828;2023-07-13T12:24:00;25.70;73.50
7998;DHT22;4044;49.814;7.828;2023-07-13T12:26:30;25.60;72.00
7998;DHT22;4044;49.814;7.828;2023-07-13T12:28:57;25.70;72.50
7998;DHT22;4044;49.814;7.828;2023-07-13T12:34:06;26.00;72.70
7998;DHT22;4044;49.814;7.828;2023-07-13T12:36:35;26.10;72.00
7998;DHT22;4044;49.814;7.828;2023-07-13T12:39:04;26.50;74.20
7998;DHT22;4044;49.814;7.828;2023-07-13T12:41:35;26.80;72.80
7998;DHT22;4044;49.814;7.828;2023-07-13T12:44:01;26.90;71.60
7998;DHT22;4044;49.814;7.828;2023-07-13T12:46:27;26.80;72.30
7998;DHT22;4044;49.814;7.828;2023-07-13T12:48:54;26.50;72.50
7998;DHT22;4044;49.814;7.828;2023-07-13T12:51:27;26.40;73.40
7998;DHT22;4044;49.814;7.828;2023-07-13T12:54:05;26.10;70.50
7998;DHT22;4044;49.814;7.828;2023-07-13T12:56:33;26.10;70.10
7998;DHT22;4044;49.814;7.828;2023-07-13T12:59:02;26.00;68.30
7998;DHT22;4044;49.814;7.828;2023-07-13T13:01:31;26.40;69.20
7998;DHT22;4044;49.814;7.828;2023-07-13T13:04:01;26.30;66.50
7998;DHT22;4044;49.814;7.828;2023-07-13T13:06:29;26.80;67.60
7998;DHT22;4044;49.814;7.828;2023-07-13T13:08:57;26.90;66.30
7998;DHT22;4044;49.814;7.828;2023-07-13T13:11:28;27.40;65.70
7998;DHT22;4044;49.814;7.828;2023-07-13T13:13:54;27.80;66.80
7998;DHT22;4044;49.814;7.828;2023-07-13T13:18:46;28.20;65.00
7998;DHT22;4044;49.814;7.828;2023-07-13T13:21:11;28.10;64.50
7998;DHT22;4044;49.814;7.828;2023-07-13T13:23:37;28.30;66.40
7998;DHT22;4044;49.814;7.828;2023-07-13T13:26:04;28.70;64.70
7998;DHT22;4044;49.814;7.828;2023-07-13T13:28:32;29.50;64.60
7998;DHT22;4044;49.814;7.828;2023-07-13T13:30:57;29.80;63.50
7998;DHT22;4044;49.814;7.828;2023-07-13T13:33:23;29.60;60.50
7998;DHT22;4044;49.814;7.828;2023-07-13T13:35:49;29.50;63.10
7998;DHT22;4044;49.814;7.828;2023-07-13T13:38:25;29.30;63.00
7998;DHT22;4044;49.814;7.828;2023-07-13T13:40:51;29.70;62.90
7998;DHT22;4044;49.814;7.828;2023-07-13T13:43:21;30.00;62.50
7998;DHT22;4044;49.814;7.828;2023-07-13T13:45:51;30.30;61.00
7998;DHT22;4044;49.814;7.828;2023-07-13T13:48:19;31.40;59.40
7998;DHT22;4044;49.814;7.828;2023-07-13T13:50:45;32.40;59.10
7998;DHT22;4044;49.814;7.828;2023-07-13T13:53:12;32.90;54.90
7998;DHT22;4044;49.814;7.828;2023-07-13T13:55:41;32.70;55.30
7998;DHT22;4044;49.814;7.828;2023-07-13T13:58:08;31.90;55.10
7998;DHT22;4044;49.814;7.828;2023-07-13T14:00:35;31.10;56.50
7998;DHT22;4044;49.814;7.828;2023-07-13T14:03:01;30.70;57.50
7998;DHT22;4044;49.814;7.828;2023-07-13T14:05:27;30.30;57.40
7998;DHT22;4044;49.814;7.828;2023-07-13T14:07:53;29.50;58.10
7998;DHT22;4044;49.814;7.828;2023-07-13T14:10:19;28.90;58.70
7998;DHT22;4044;49.814;7.828;2023-07-13T14:12:47;28.60;59.70
7998;DHT22;4044;49.814;7.828;2023-07-13T14:15:27;28.20;60.50
7998;DHT22;4044;49.814;7.828;2023-07-13T14:17:54;27.80;60.80
7998;DHT22;4044;49.814;7.828;2023-07-13T14:20:21;27.80;61.70
7998;DHT22;4044;49.814;7.828;2023-07-13T14:22:49;27.80;61.80
7998;DHT22;4044;49.814;7.828;2023-07-13T14:25:16;27.80;60.70
7998;DHT22;4044;49.814;7.828;2023-07-13T14:27:43;28.00;60.10
7998;DHT22;4044;49.814;7.828;2023-07-13T14:30:17;28.60;58.70
7998;DHT22;4044;49.814;7.828;2023-07-13T14:32:43;29.30;57.50
7998;DHT22;4044;49.814;7.828;2023-07-13T14:35:13;29.20;56.50
7998;DHT22;4044;49.814;7.828;2023-07-13T14:37:40;29.50;56.80
7998;DHT22;4044;49.814;7.828;2023-07-13T14:40:32;29.90;57.10
7998;DHT22;4044;49.814;7.828;2023-07-13T14:42:58;30.50;56.10
7998;DHT22;4044;49.814;7.828;2023-07-13T14:45:24;30.70;56.10
7998;DHT22;4044;49.814;7.828;2023-07-13T14:47:50;31.50;55.90
7998;DHT22;4044;49.814;7.828;2023-07-13T14:50:19;31.30;55.00
7998;DHT22;4044;49.814;7.828;2023-07-13T14:52:45;31.20;56.60
7998;DHT22;4044;49.814;7.828;2023-07-13T14:55:16;30.60;55.60
7998;DHT22;4044;49.814;7.828;2023-07-13T14:57:42;30.70;55.90
7998;DHT22;4044;49.814;7.828;2023-07-13T15:02:41;34.00;53.00
7998;DHT22;4044;49.814;7.828;2023-07-13T15:05:19;34.50;51.70
7998;DHT22;4044;49.814;7.828;2023-07-13T15:07:45;35.00;51.60
7998;DHT22;4044;49.814;7.828;2023-07-13T15:12:44;34.60;49.70
7998;DHT22;4044;49.814;7.828;2023-07-13T15:15:10;35.70;51.00
7998;DHT22;4044;49.814;7.828;2023-07-13T15:17:40;36.10;48.20
7998;DHT22;4044;49.814;7.828;2023-07-13T15:20:21;36.10;48.30
7998;DHT22;4044;49.814;7.828;2023-07-13T15:22:50;36.00;48.90
7998;DHT22;4044;49.814;7.828;2023-07-13T15:25:19;35.40;49.80
7998;DHT22;4044;49.814;7.828;2023-07-13T15:27:45;34.10;48.50
7998;DHT22;4044;49.814;7.828;2023-07-13T15:30:11;33.20;52.20
7998;DHT22;4044;49.814;7.828;2023-07-13T15:32:36;32.70;52.50
7998;DHT22;4044;49.814;7.828;2023-07-13T15:35:02;32.80;52.20
7998;DHT22;4044;49.814;7.828;2023-07-13T15:37:28;34.30;49.80
7998;DHT22;4044;49.814;7.828;2023-07-13T15:39:54;34.10;49.30
7998;DHT22;4044;49.814;7.828;2023-07-13T15:42:20;33.40;50.80
7998;DHT22;4044;49.814;7.828;2023-07-13T15:44:47;32.60;50.60
7998;DHT22;4044;49.814;7.828;2023-07-13T15:47:14;33.00;51.60
7998;DHT22;4044;49.814;7.828;2023-07-13T15:49:41;33.80;51.80
7998;DHT22;4044;49.814;7.828;2023-07-13T15:52:24;34.30;49.90
7998;DHT22;4044;49.814;7.828;2023-07-13T15:54:50;33.20;49.90
7998;DHT22;4044;49.814;7.828;2023-07-13T15:57:16;32.30;52.00
7998;DHT22;4044;49.814;7.828;2023-07-13T15:59:42;32.70;52.00
7998;DHT22;4044;49.814;7.828;2023-07-13T16:02:19;32.50;51.30
7998;DHT22;4044;49.814;7.828;2023-07-13T16:04:45;33.80;51.70
7998;DHT22;4044;49.814;7.828;2023-07-13T16:07:13;32.70;49.70
7998;DHT22;4044;49.814;7.828;2023-07-13T16:09:40;32.20;52.40
7998;DHT22;4044;49.814;7.828;2023-07-13T16:12:10;32.20;51.70
7998;DHT22;4044;49.814;7.828;2023-07-13T16:14:37;31.50;51.50
7998;DHT22;4044;49.814;7.828;2023-07-13T16:17:04;30.60;51.60
7998;DHT22;4044;49.814;7.828;2023-07-13T16:19:31;31.00;51.80
7998;DHT22;4044;49.814;7.828;2023-07-13T16:21:57;30.80;51.80
7998;DHT22;4044;49.814;7.828;2023-07-13T16:24:25;31.50;51.70
7998;DHT22;4044;49.814;7.828;2023-07-13T16:26:52;32.70;51.50
7998;DHT22;4044;49.814;7.828;2023-07-13T16:29:23;33.70;49.70
7998;DHT22;4044;49.814;7.828;2023-07-13T16:32:04;34.80;48.00
7998;DHT22;4044;49.814;7.828;2023-07-13T16:34:30;35.90;46.00
7998;DHT22;4044;49.814;7.828;2023-07-13T16:36:56;36.50;44.80
7998;DHT22;4044;49.814;7.828;2023-07-13T16:39:23;36.00;45.50
7998;DHT22;4044;49.814;7.828;2023-07-13T16:41:53;35.70;46.00
7998;DHT22;4044;49.814;7.828;2023-07-13T16:44:20;35.10;46.60
7998;DHT22;4044;49.814;7.828;2023-07-13T16:46:49;34.10;46.80
7998;DHT22;4044;49.814;7.828;2023-07-13T16:51:50;34.90;47.20